Time;durP1;ratioP1;P1;durP2;ratioP2;P2;SDS_P1;SDS_P2;PMS_P1;PMS_P2;Temp;Humidity;BMP_temperature;BMP_pressure;BME280_temperature;BME280_humidity;BME280_pressure;Samples;Min_cycle;Max_cycle;Signal;HPM_P1;HPM_P2
2021/06/04 00:01:34;;;;;;;3.47;1.00;;;19.40;99.90;;;;;;5120732;28;20471;-74
2021/06/04 00:04:01;;;;;;;1.07;0.80;;;19.40;99.90;;;;;;5120292;28;20428;-74
2021/06/04 00:06:28;;;;;;;1.10;0.80;;;19.40;99.90;;;;;;5120082;28;20512;-74
2021/06/04 00:08:55;;;;;;;1.70;0.80;;;19.40;99.90;;;;;;5119931;28;20487;-76
2021/06/04 00:11:25;;;;;;;1.10;0.80;;;19.40;99.90;;;;;;5120324;28;20504;-73
2021/06/04 00:13:53;;;;;;;1.60;0.80;;;19.30;99.90;;;;;;5120045;28;20874;-73
2021/06/04 00:16:23;;;;;;;1.60;0.80;;;19.40;99.90;;;;;;5120140;28;20624;-74
2021/06/04 00:18:51;;;;;;;1.40;0.70;;;19.40;99.90;;;;;;5119733;28;20451;-73
2021/06/04 00:21:21;;;;;;;1.10;0.80;;;19.40;99.90;;;;;;5119827;28;20745;-74
2021/06/04 00:23:48;;;;;;;1.50;0.80;;;19.40;99.90;;;;;;5120544;28;20858;-74
2021/06/04 00:26:15;;;;;;;1.20;0.80;;;19.40;99.90;;;;;;5120379;28;20923;-73
2021/06/04 00:28:42;;;;;;;1.90;0.80;;;19.40;99.90;;;;;;5119391;28;20495;-74
2021/06/04 00:31:09;;;;;;;1.30;0.80;;;19.40;99.90;;;;;;5119472;28;20507;-74
2021/06/04 00:33:37;;;;;;;1.00;0.70;;;19.40;99.90;;;;;;5118964;28;20440;-74
2021/06/04 00:36:07;;;;;;;1.20;0.80;;;19.30;99.90;;;;;;5119136;28;20447;-73
2021/06/04 00:38:33;;;;;;;1.08;0.80;;;19.20;99.90;;;;;;5118868;28;20452;-74
2021/06/04 00:41:03;;;;;;;1.10;0.80;;;19.10;99.90;;;;;;5118255;28;20420;-73
2021/06/04 00:43:29;;;;;;;1.10;0.80;;;19.00;99.90;;;;;;5117831;28;20757;-74
2021/06/04 00:45:57;;;;;;;0.80;0.70;;;19.00;99.90;;;;;;5117357;28;20408;-73
2021/06/04 00:48:25;;;;;;;1.00;0.80;;;19.00;99.90;;;;;;5117968;28;20442;-74
2021/06/04 00:50:56;;;;;;;0.98;0.80;;;19.00;99.90;;;;;;5117927;28;20436;-74
2021/06/04 00:53:26;;;;;;;0.90;0.70;;;19.00;99.90;;;;;;5117836;28;20420;-74
2021/06/04 00:55:53;;;;;;;0.95;0.73;;;19.00;99.90;;;;;;5117685;28;20420;-74
2021/06/04 00:58:25;;;;;;;1.00;0.70;;;19.00;99.90;;;;;;5119067;28;20455;-73
2021/06/04 01:00:55;;;;;;;1.17;0.70;;;19.10;99.90;;;;;;5117934;28;20511;-74
2021/06/04 01:03:26;;;;;;;1.40;0.70;;;19.10;99.90;;;;;;5118303;28;20519;-74
2021/06/04 01:05:59;;;;;;;0.90;0.80;;;19.10;99.90;;;;;;5119301;28;20493;-74
2021/06/04 01:08:52;;;;;;;1.00;0.80;;;19.10;99.90;;;;;;5118988;28;20526;-74
2021/06/04 01:11:28;;;;;;;1.10;0.80;;;19.10;99.90;;;;;;5118562;28;20443;-75
2021/06/04 01:14:07;;;;;;;1.10;0.70;;;19.00;99.90;;;;;;5118343;28;20831;-74
2021/06/04 01:16:37;;;;;;;1.00;0.77;;;19.00;99.90;;;;;;5118385;28;20424;-74
2021/06/04 01:19:28;;;;;;;1.03;0.80;;;19.00;99.90;;;;;;5117820;28;20463;-74
2021/06/04 01:21:57;;;;;;;1.00;0.90;;;18.90;99.90;;;;;;5118354;28;20523;-75
2021/06/04 01:24:40;;;;;;;1.10;0.80;;;18.90;99.90;;;;;;5118284;28;20941;-74
2021/06/04 01:27:12;;;;;;;0.90;0.70;;;18.90;99.90;;;;;;5118113;28;20514;-74
2021/06/04 01:29:43;;;;;;;1.00;0.80;;;18.90;99.90;;;;;;5116346;28;20449;-74
2021/06/04 01:32:14;;;;;;;1.10;0.70;;;18.80;99.90;;;;;;5118136;28;20511;-75
2021/06/04 01:34:44;;;;;;;0.90;0.77;;;18.80;99.90;;;;;;5117396;28;20451;-75
2021/06/04 01:37:15;;;;;;;1.00;0.73;;;18.80;99.90;;;;;;5117937;28;20431;-74
2021/06/04 01:39:43;;;;;;;1.50;0.80;;;18.80;99.90;;;;;;5117533;28;20886;-74
2021/06/04 01:42:15;;;;;;;1.25;0.80;;;18.70;99.90;;;;;;5118041;28;20459;-74
2021/06/04 01:44:46;;;;;;;1.10;0.80;;;18.70;99.90;;;;;;5117653;28;20432;-74
2021/06/04 01:47:15;;;;;;;1.40;0.80;;;18.60;99.90;;;;;;5117697;28;20477;-74
2021/06/04 01:49:48;;;;;;;1.10;0.70;;;18.60;99.90;;;;;;5118056;28;20474;-75
2021/06/04 01:52:19;;;;;;;1.60;0.70;;;18.60;99.90;;;;;;5118707;28;20428;-74
2021/06/04 01:54:49;;;;;;;1.10;0.90;;;18.60;99.90;;;;;;5118756;28;20510;-74
2021/06/04 01:57:21;;;;;;;1.00;0.70;;;18.60;99.90;;;;;;5118143;28;20898;-74
2021/06/04 01:59:52;;;;;;;1.25;0.88;;;18.60;99.90;;;;;;5118477;28;20869;-75
2021/06/04 02:02:20;;;;;;;1.20;0.80;;;18.60;99.90;;;;;;5117737;28;20428;-75
2021/06/04 02:04:50;;;;;;;1.20;0.80;;;18.60;99.90;;;;;;5117981;28;20432;-74
2021/06/04 02:07:19;;;;;;;1.50;0.80;;;18.50;99.90;;;;;;5118012;28;20428;-74
2021/06/04 02:09:47;;;;;;;0.90;0.70;;;18.50;99.90;;;;;;5117187;28;20445;-74
2021/06/04 02:12:14;;;;;;;1.10;0.80;;;18.50;99.90;;;;;;5117852;28;20448;-73
2021/06/04 02:14:46;;;;;;;1.30;0.80;;;18.50;99.90;;;;;;5117302;28;20465;-74
2021/06/04 02:17:23;;;;;;;1.08;0.80;;;18.60;99.90;;;;;;5118069;28;20769;-74
2021/06/04 02:19:58;;;;;;;1.60;0.80;;;18.60;99.90;;;;;;5117444;28;20550;-73
2021/06/04 02:22:29;;;;;;;1.50;0.70;;;18.60;99.90;;;;;;5117827;28;20471;-73
2021/06/04 02:25:03;;;;;;;1.30;0.80;;;18.60;99.90;;;;;;5117386;28;20507;-73
2021/06/04 02:27:34;;;;;;;1.10;0.70;;;18.60;99.90;;;;;;5117199;28;20617;-73
2021/06/04 02:30:14;;;;;;;0.90;0.70;;;18.70;99.90;;;;;;5117505;28;20478;-73
2021/06/04 02:32:46;;;;;;;1.15;0.70;;;18.70;99.90;;;;;;5117111;28;20424;-73
2021/06/04 02:35:17;;;;;;;3.50;0.80;;;18.70;99.90;;;;;;5117287;28;20506;-73
2021/06/04 02:37:47;;;;;;;1.40;0.80;;;18.60;99.90;;;;;;5118171;28;20712;-73
2021/06/04 02:40:18;;;;;;;1.40;0.80;;;18.60;99.90;;;;;;5117105;28;20506;-73
2021/06/04 02:42:47;;;;;;;1.00;0.80;;;18.50;99.90;;;;;;5116866;28;20455;-73
2021/06/04 02:45:22;;;;;;;1.50;0.80;;;18.50;99.90;;;;;;5117126;28;20852;-73
2021/06/04 02:47:51;;;;;;;1.10;0.80;;;18.40;99.90;;;;;;5117559;28;20420;-74
2021/06/04 02:50:21;;;;;;;1.10;0.80;;;18.40;99.90;;;;;;5116528;28;20416;-73
2021/06/04 02:52:48;;;;;;;0.90;0.70;;;18.20;99.90;;;;;;5115633;28;20486;-74
2021/06/04 02:55:19;;;;;;;0.90;0.70;;;18.10;99.90;;;;;;5116582;28;20511;-74
2021/06/04 02:57:46;;;;;;;1.50;0.70;;;18.10;99.90;;;;;;5116568;28;20503;-73
2021/06/04 03:00:24;;;;;;;1.10;0.70;;;18.10;99.90;;;;;;5115804;28;20730;-74
2021/06/04 03:02:51;;;;;;;1.10;0.70;;;18.10;99.90;;;;;;5116651;28;20496;-74
2021/06/04 03:05:23;;;;;;;1.00;0.80;;;18.20;99.90;;;;;;5116380;28;20487;-74
2021/06/04 03:07:49;;;;;;;0.90;0.80;;;18.20;99.90;;;;;;5117494;28;20507;-74
2021/06/04 03:10:21;;;;;;;0.95;0.70;;;18.20;99.90;;;;;;5117499;28;20894;-74
2021/06/04 03:12:50;;;;;;;0.80;0.70;;;18.30;99.90;;;;;;5116612;28;20592;-73
2021/06/04 03:15:25;;;;;;;1.15;0.80;;;18.30;99.90;;;;;;5115893;28;20420;-74
2021/06/04 03:17:51;;;;;;;2.00;0.80;;;18.30;99.90;;;;;;5116285;28;20459;-74
2021/06/04 03:20:27;;;;;;;3.10;0.85;;;18.40;99.90;;;;;;5116822;28;20420;-74
2021/06/04 03:22:53;;;;;;;1.37;0.90;;;18.30;99.90;;;;;;5117130;28;20424;-74
2021/06/04 03:25:24;;;;;;;1.70;0.90;;;18.30;99.90;;;;;;5117134;28;20416;-74
2021/06/04 03:27:51;;;;;;;1.00;0.80;;;18.40;99.90;;;;;;5117671;28;20791;-73
2021/06/04 03:30:21;;;;;;;1.10;0.93;;;18.30;99.90;;;;;;5117745;28;20777;-74
2021/06/04 03:32:48;;;;;;;1.40;1.00;;;18.40;99.90;;;;;;5117027;28;20485;-74
2021/06/04 03:35:15;;;;;;;1.10;1.00;;;18.30;99.90;;;;;;5116766;28;20480;-74
2021/06/04 03:37:42;;;;;;;1.55;1.08;;;18.30;99.90;;;;;;5117239;28;20518;-73
2021/06/04 03:40:12;;;;;;;1.35;0.90;;;18.30;99.90;;;;;;5116687;28;20505;-73
2021/06/04 03:42:39;;;;;;;1.20;0.90;;;18.30;99.90;;;;;;5117247;28;20428;-73
2021/06/04 03:45:09;;;;;;;1.40;1.10;;;18.40;99.90;;;;;;5116918;28;20514;-73
2021/06/04 03:47:36;;;;;;;1.30;1.00;;;18.40;99.90;;;;;;5117597;28;20462;-74
2021/06/04 03:50:05;;;;;;;1.30;1.00;;;18.50;99.90;;;;;;5116613;28;20436;-74
2021/06/04 03:52:31;;;;;;;1.48;1.10;;;18.50;99.90;;;;;;5117146;28;21035;-74
2021/06/04 03:54:59;;;;;;;1.90;1.00;;;18.50;99.90;;;;;;5121165;28;20670;-74
2021/06/04 03:57:28;;;;;;;1.27;1.10;;;18.40;99.90;;;;;;5120336;28;20843;-74
2021/06/04 03:59:55;;;;;;;2.30;1.20;;;18.40;99.90;;;;;;5120057;28;20542;-74
2021/06/04 04:02:25;;;;;;;2.40;1.20;;;18.40;99.90;;;;;;5120404;28;20471;-74
2021/06/04 04:04:58;;;;;;;1.80;1.20;;;18.50;99.90;;;;;;5120899;28;20475;-74
2021/06/04 04:07:26;;;;;;;1.50;1.30;;;18.40;99.90;;;;;;5120401;28;20806;-74
2021/06/04 04:09:52;;;;;;;2.30;1.30;;;18.40;99.90;;;;;;5118819;28;20455;-74
2021/06/04 04:12:19;;;;;;;1.50;1.20;;;18.40;99.90;;;;;;5120327;28;20469;-73
2021/06/04 04:14:46;;;;;;;1.50;1.30;;;18.40;99.90;;;;;;5119265;28;20416;-74
2021/06/04 04:17:12;;;;;;;2.50;1.10;;;18.40;99.90;;;;;;5119407;28;20431;-74
2021/06/04 04:19:39;;;;;;;1.50;1.20;;;18.40;99.90;;;;;;5119099;28;20455;-73
2021/06/04 04:22:07;;;;;;;1.70;1.40;;;18.50;99.90;;;;;;5119455;28;20428;-74
2021/06/04 04:24:37;;;;;;;1.40;1.20;;;18.60;99.90;;;;;;5119735;28;20475;-73
2021/06/04 04:27:04;;;;;;;1.40;1.20;;;18.70;99.90;;;;;;5119397;28;20523;-73
2021/06/04 04:29:31;;;;;;;1.60;1.40;;;18.80;99.90;;;;;;5119949;28;20498;-74
2021/06/04 04:32:00;;;;;;;1.60;1.20;;;18.90;99.90;;;;;;5119108;28;20870;-74
2021/06/04 04:34:28;;;;;;;1.92;1.10;;;18.90;99.90;;;;;;5119989;28;20787;-73
2021/06/04 04:36:58;;;;;;;1.50;1.20;;;19.00;99.90;;;;;;5120237;28;20460;-73
2021/06/04 04:39:29;;;;;;;1.85;1.20;;;19.00;99.90;;;;;;5118489;28;20495;-73
2021/06/04 04:41:55;;;;;;;1.55;1.10;;;19.10;99.90;;;;;;5120038;28;20839;-73
2021/06/04 04:44:25;;;;;;;1.60;1.23;;;19.10;99.90;;;;;;5119217;28;20737;-73
2021/06/04 04:46:51;;;;;;;1.42;1.05;;;19.10;99.90;;;;;;5119750;28;20452;-75
2021/06/04 04:49:18;;;;;;;1.77;1.10;;;19.10;99.90;;;;;;5118831;28;20801;-72
2021/06/04 04:51:44;;;;;;;1.42;1.10;;;19.20;99.90;;;;;;5118608;28;20455;-73
2021/06/04 04:54:11;;;;;;;1.40;1.20;;;19.20;99.90;;;;;;5117959;28;20496;-74
2021/06/04 04:56:40;;;;;;;1.73;1.20;;;19.20;99.90;;;;;;5118594;28;20431;-73
2021/06/04 04:59:07;;;;;;;1.80;1.00;;;19.20;99.90;;;;;;5137909;27;20858;-73
2021/06/04 05:01:34;;;;;;;1.40;1.20;;;19.30;99.90;;;;;;5139243;27;20966;-74
2021/06/04 05:04:01;;;;;;;1.40;1.00;;;19.30;99.90;;;;;;5137249;27;20458;-74
2021/06/04 05:06:28;;;;;;;1.20;0.90;;;19.50;99.90;;;;;;5137485;27;20422;-74
2021/06/04 05:08:54;;;;;;;1.50;1.10;;;19.60;99.90;;;;;;5138378;27;20505;-74
2021/06/04 05:11:21;;;;;;;1.30;1.02;;;19.70;99.90;;;;;;5136917;27;20410;-75
2021/06/04 05:13:49;;;;;;;1.15;0.90;;;19.80;99.90;;;;;;5136314;27;20471;-75
2021/06/04 05:16:15;;;;;;;1.40;1.05;;;19.90;99.90;;;;;;5135875;27;20498;-74
2021/06/04 05:18:42;;;;;;;1.10;1.00;;;20.00;99.90;;;;;;5137316;27;20451;-73
2021/06/04 05:21:12;;;;;;;1.20;0.90;;;20.00;99.90;;;;;;5138456;27;20466;-74
2021/06/04 05:23:39;;;;;;;2.05;1.10;;;20.10;99.90;;;;;;5137860;27;20491;-74
2021/06/04 05:26:06;;;;;;;2.00;1.10;;;20.30;99.90;;;;;;5137238;27;20695;-73
2021/06/04 05:28:33;;;;;;;1.30;1.00;;;20.40;99.90;;;;;;5144960;27;20456;-76
2021/06/04 05:31:04;;;;;;;1.60;1.10;;;20.50;99.90;;;;;;5158359;27;20464;-75
2021/06/04 05:33:33;;;;;;;1.50;1.00;;;20.60;99.90;;;;;;5158709;27;20797;-76
2021/06/04 05:36:01;;;;;;;1.80;1.00;;;20.50;99.90;;;;;;5159218;27;20409;-76
2021/06/04 05:38:28;;;;;;;1.20;1.00;;;20.60;99.90;;;;;;5159644;27;20466;-76
2021/06/04 05:40:55;;;;;;;1.42;1.00;;;20.60;99.90;;;;;;5158706;27;20417;-76
2021/06/04 05:43:27;;;;;;;2.00;0.90;;;20.60;99.90;;;;;;5158513;27;20455;-75
2021/06/04 05:45:54;;;;;;;1.15;1.00;;;20.60;99.90;;;;;;5159492;27;20448;-75
2021/06/04 05:48:23;;;;;;;1.65;1.00;;;20.70;99.90;;;;;;5158314;27;20427;-75
2021/06/04 05:50:53;;;;;;;1.30;1.00;;;20.60;99.90;;;;;;5158348;27;20715;-75
2021/06/04 05:53:23;;;;;;;1.20;1.10;;;20.80;99.90;;;;;;5159175;27;20432;-76
2021/06/04 05:55:49;;;;;;;2.30;1.00;;;21.00;99.90;;;;;;5159010;27;20481;-75
2021/06/04 05:58:18;;;;;;;1.90;1.00;;;21.10;99.90;;;;;;5158226;27;20520;-75
2021/06/04 06:00:47;;;;;;;2.00;0.90;;;21.30;99.90;;;;;;5158068;27;20424;-75
2021/06/04 06:03:17;;;;;;;1.00;0.90;;;21.40;99.90;;;;;;5158052;27;20425;-75
2021/06/04 06:05:45;;;;;;;1.00;0.80;;;21.50;99.90;;;;;;5156703;27;20661;-75
2021/06/04 06:08:12;;;;;;;1.30;0.77;;;21.40;99.90;;;;;;5157070;27;20417;-75
2021/06/04 06:10:39;;;;;;;0.93;0.70;;;21.40;99.90;;;;;;5156187;27;20413;-75
2021/06/04 06:13:06;;;;;;;1.20;0.80;;;21.50;99.90;;;;;;5157326;27;20456;-75
2021/06/04 06:15:33;;;;;;;1.40;0.80;;;21.60;99.90;;;;;;5156882;27;20723;-75
2021/06/04 06:17:59;;;;;;;10.38;7.70;;;21.70;99.90;;;;;;5155038;27;20448;-72
2021/06/04 06:20:30;;;;;;;1.10;1.00;;;21.90;99.90;;;;;;5155079;27;20440;-72
2021/06/04 06:22:59;;;;;;;1.02;0.85;;;22.00;99.90;;;;;;5154068;27;20444;-72
2021/06/04 06:25:28;;;;;;;1.30;0.90;;;22.00;99.90;;;;;;5153488;27;20899;-73
2021/06/04 06:27:56;;;;;;;1.20;0.90;;;22.00;99.90;;;;;;5146297;27;20521;-74
2021/06/04 06:30:24;;;;;;;1.52;1.00;;;22.10;99.90;;;;;;5129747;27;20457;-73
2021/06/04 06:32:51;;;;;;;1.85;1.30;;;22.20;99.90;;;;;;5129341;27;20438;-72
2021/06/04 06:35:20;;;;;;;1.30;1.00;;;22.10;99.90;;;;;;5129195;27;20447;-71
2021/06/04 06:37:47;;;;;;;1.10;1.00;;;22.00;99.90;;;;;;5130340;27;20516;-71
2021/06/04 06:40:15;;;;;;;1.38;0.90;;;22.10;99.90;;;;;;5130517;27;20840;-71
2021/06/04 06:42:42;;;;;;;1.70;0.80;;;22.20;99.90;;;;;;5130379;27;20445;-72
2021/06/04 06:45:10;;;;;;;2.63;0.80;;;22.20;99.90;;;;;;5130628;27;20523;-72
2021/06/04 06:47:36;;;;;;;1.10;0.90;;;22.10;99.90;;;;;;5132023;27;20423;-72
2021/06/04 06:50:04;;;;;;;1.50;1.00;;;22.10;99.90;;;;;;5132491;27;20785;-72
2021/06/04 06:52:30;;;;;;;1.50;0.93;;;22.00;99.90;;;;;;5133891;27;20477;-71
2021/06/04 06:54:57;;;;;;;1.30;1.10;;;21.90;99.90;;;;;;5135190;27;20430;-72
2021/06/04 06:57:25;;;;;;;2.40;1.10;;;21.90;99.90;;;;;;5135597;27;20430;-72
2021/06/04 06:59:51;;;;;;;1.80;1.00;;;21.90;99.90;;;;;;5135163;28;20403;-73
2021/06/04 07:02:19;;;;;;;3.20;1.00;;;21.80;99.90;;;;;;5135696;28;20709;-72
2021/06/04 07:04:46;;;;;;;1.20;0.90;;;21.80;99.90;;;;;;5134852;28;20553;-72
2021/06/04 07:07:12;;;;;;;2.22;1.00;;;21.90;99.90;;;;;;5135202;28;20864;-72
2021/06/04 07:09:39;;;;;;;1.77;1.00;;;21.90;99.90;;;;;;5135074;28;20640;-73
2021/06/04 07:12:06;;;;;;;1.20;0.90;;;22.00;99.90;;;;;;5134050;28;20458;-73
2021/06/04 07:14:35;;;;;;;1.88;1.10;;;22.00;99.90;;;;;;5134786;28;20415;-72
2021/06/04 07:17:03;;;;;;;1.60;0.90;;;22.00;99.90;;;;;;5134559;28;20418;-71
2021/06/04 07:19:30;;;;;;;1.65;1.00;;;22.10;99.90;;;;;;5132980;28;20921;-73
2021/06/04 07:21:57;;;;;;;1.80;0.90;;;22.10;99.90;;;;;;5135650;28;20426;-73
2021/06/04 07:24:25;;;;;;;1.40;0.90;;;22.10;99.90;;;;;;5134142;28;20433;-74
2021/06/04 07:26:56;;;;;;;1.50;1.00;;;22.20;99.90;;;;;;5135796;27;20441;-74
2021/06/04 07:29:24;;;;;;;2.00;1.00;;;22.30;99.90;;;;;;5138632;27;20450;-73
2021/06/04 07:31:52;;;;;;;1.20;1.00;;;22.40;99.90;;;;;;5144068;27;20433;-72
2021/06/04 07:34:23;;;;;;;2.55;1.02;;;22.60;99.90;;;;;;5138169;27;20406;-73
2021/06/04 07:36:56;;;;;;;1.30;0.90;;;22.70;99.90;;;;;;5139918;27;20865;-72
2021/06/04 07:39:26;;;;;;;1.60;1.00;;;22.80;99.90;;;;;;5140020;27;20763;-73
2021/06/04 07:41:54;;;;;;;3.00;1.00;;;23.00;99.90;;;;;;5150062;27;20456;-74
2021/06/04 07:44:22;;;;;;;1.10;0.90;;;23.20;99.90;;;;;;5118883;28;20435;-73
2021/06/04 07:46:52;;;;;;;1.65;1.00;;;23.30;99.90;;;;;;5127707;27;20458;-75
2021/06/04 07:49:19;;;;;;;1.00;0.90;;;23.30;99.90;;;;;;5137760;27;20418;-74
2021/06/04 07:51:49;;;;;;;2.00;1.00;;;23.40;99.90;;;;;;5140349;27;20490;-73
2021/06/04 07:54:18;;;;;;;1.30;1.20;;;23.30;99.90;;;;;;5145990;27;20417;-73
2021/06/04 07:56:45;;;;;;;2.10;0.90;;;23.20;99.90;;;;;;5150430;27;20454;-73
2021/06/04 07:59:12;;;;;;;1.30;1.10;;;23.20;99.90;;;;;;5141587;27;20489;-73
2021/06/04 08:01:40;;;;;;;1.10;0.85;;;23.50;99.90;;;;;;5141792;27;20530;-73
2021/06/04 08:04:08;;;;;;;1.00;0.90;;;23.70;99.90;;;;;;5139876;27;20427;-73
2021/06/04 08:06:35;;;;;;;1.10;0.80;;;23.70;99.90;;;;;;5160442;27;20428;-73
2021/06/04 08:09:02;;;;;;;1.00;0.80;;;23.80;99.90;;;;;;5159868;27;20463;-73
2021/06/04 08:11:44;;;;;;;1.10;0.90;;;23.90;99.90;;;;;;5141896;27;20464;-74
2021/06/04 08:14:13;;;;;;;1.23;0.80;;;24.00;99.90;;;;;;5145219;27;20418;-74
2021/06/04 08:16:42;;;;;;;1.40;1.00;;;24.30;99.90;;;;;;5143514;27;20434;-72
2021/06/04 08:19:12;;;;;;;1.33;0.70;;;24.40;99.90;;;;;;5155576;27;20706;-74
2021/06/04 08:21:42;;;;;;;1.63;0.73;;;24.60;99.90;;;;;;5161303;27;20416;-74
2021/06/04 08:24:11;;;;;;;1.10;0.70;;;24.60;99.90;;;;;;5155662;27;20435;-73
2021/06/04 08:26:39;;;;;;;0.90;0.70;;;24.60;99.90;;;;;;5158583;27;20496;-73
2021/06/04 08:29:08;;;;;;;1.50;0.70;;;24.40;99.90;;;;;;5160330;27;20428;-72
2021/06/04 08:31:35;;;;;;;2.47;0.70;;;24.50;99.90;;;;;;5159461;27;20425;-72
2021/06/04 08:34:01;;;;;;;0.90;0.60;;;24.50;99.90;;;;;;5156273;27;20470;-72
2021/06/04 08:36:32;;;;;;;1.00;0.65;;;24.60;99.90;;;;;;5153203;27;20489;-72
2021/06/04 08:38:59;;;;;;;1.00;0.70;;;24.60;99.90;;;;;;5143010;27;20854;-71
2021/06/04 08:41:36;;;;;;;1.20;0.70;;;24.60;99.90;;;;;;5139215;27;20438;-73
2021/06/04 08:44:15;;;;;;;1.40;0.70;;;24.80;99.90;;;;;;5143999;27;20589;-72
2021/06/04 08:46:46;;;;;;;1.50;0.60;;;25.00;99.90;;;;;;5155921;27;20431;-73
2021/06/04 08:49:20;;;;;;;1.60;0.60;;;25.20;99.90;;;;;;5148319;27;20969;-73
2021/06/04 08:52:06;;;;;;;1.63;0.60;;;25.30;99.90;;;;;;5158670;27;20862;-72
2021/06/04 08:54:41;;;;;;;2.00;0.70;;;25.60;99.90;;;;;;5159160;27;20435;-73
2021/06/04 08:57:14;;;;;;;0.90;0.60;;;25.80;99.90;;;;;;5157516;27;20712;-73
2021/06/04 08:59:42;;;;;;;1.27;0.60;;;26.00;99.90;;;;;;5155902;27;20821;-73
2021/06/04 09:02:11;;;;;;;1.30;0.60;;;26.20;99.90;;;;;;5156024;27;20701;-73
2021/06/04 09:04:42;;;;;;;1.27;0.60;;;26.30;99.90;;;;;;5116790;27;20865;-72
2021/06/04 09:07:14;;;;;;;1.98;0.70;;;26.30;99.90;;;;;;5115352;28;20882;-73
2021/06/04 09:09:44;;;;;;;1.70;0.70;;;26.40;99.90;;;;;;5115130;28;20415;-75
2021/06/04 09:12:16;;;;;;;2.00;0.70;;;26.50;99.90;;;;;;5135838;27;20427;-75
2021/06/04 09:14:43;;;;;;;1.50;0.80;;;26.50;99.90;;;;;;5141799;27;20932;-75
2021/06/04 09:17:25;;;;;;;1.30;0.60;;;26.50;99.90;;;;;;5135389;27;20431;-74
2021/06/04 09:20:00;;;;;;;1.10;0.60;;;26.50;99.90;;;;;;5136193;27;20863;-74
2021/06/04 09:22:35;;;;;;;1.10;0.60;;;26.60;99.90;;;;;;5135194;27;20950;-74
2021/06/04 09:25:05;;;;;;;0.70;0.60;;;26.80;99.90;;;;;;5138348;27;20733;-72
2021/06/04 09:27:35;;;;;;;0.90;0.60;;;26.80;99.90;;;;;;5158118;27;20446;-76
2021/06/04 09:30:22;;;;;;;2.60;0.70;;;26.90;99.90;;;;;;5157964;27;20413;-74
2021/06/04 09:33:07;;;;;;;0.90;0.60;;;27.00;99.90;;;;;;5160619;27;20416;-76
2021/06/04 09:35:35;;;;;;;1.20;0.70;;;27.10;99.90;;;;;;5160488;27;20844;-77
2021/06/04 09:38:15;;;;;;;1.00;0.70;;;27.20;99.90;;;;;;5152566;27;20712;-78
2021/06/04 09:40:43;;;;;;;1.60;0.70;;;27.30;99.90;;;;;;5138697;27;20438;-78
2021/06/04 09:43:16;;;;;;;1.35;0.70;;;27.60;99.90;;;;;;5150392;27;20467;-77
2021/06/04 09:45:56;;;;;;;1.50;0.70;;;27.50;99.90;;;;;;5150724;27;20451;-74
2021/06/04 09:48:37;;;;;;;1.30;0.70;;;27.60;99.90;;;;;;5136789;27;20720;-76
2021/06/04 09:51:10;;;;;;;1.00;0.70;;;27.60;99.90;;;;;;5133782;27;20438;-76
2021/06/04 09:53:37;;;;;;;1.40;0.70;;;27.60;99.90;;;;;;5116197;28;20421;-74
2021/06/04 09:56:30;;;;;;;1.40;0.70;;;27.60;99.90;;;;;;5142556;27;20512;-74
2021/06/04 09:58:59;;;;;;;0.90;0.70;;;27.40;99.90;;;;;;5126674;27;20748;-75
2021/06/04 10:01:28;;;;;;;2.80;0.70;;;27.40;99.90;;;;;;5133136;27;20863;-77
2021/06/04 10:03:59;;;;;;;1.90;0.60;;;27.50;99.90;;;;;;5134029;27;20718;-79
2021/06/04 10:06:38;;;;;;;0.90;0.70;;;27.50;99.90;;;;;;5135171;27;20422;-75
2021/06/04 10:09:24;;;;;;;0.90;0.70;;;27.40;99.90;;;;;;5135667;27;20495;-74
2021/06/04 10:11:54;;;;;;;2.00;1.00;;;27.30;99.90;;;;;;5131919;27;20426;-76
2021/06/04 10:14:29;;;;;;;1.40;1.10;;;27.10;99.90;;;;;;5135655;27;20775;-74
2021/06/04 10:17:03;;;;;;;1.00;0.80;;;26.50;99.90;;;;;;5147510;27;20429;-74
2021/06/04 10:19:39;;;;;;;1.60;0.80;;;26.90;99.90;;;;;;5155088;27;20417;-73
2021/06/04 10:22:31;;;;;;;1.38;0.70;;;27.40;99.90;;;;;;5144628;27;20481;-74
2021/06/04 10:25:18;;;;;;;0.80;0.70;;;27.90;99.90;;;;;;5135957;27;20522;-75
2021/06/04 10:27:47;;;;;;;0.93;0.70;;;28.30;99.90;;;;;;5131823;27;20452;-75
2021/06/04 10:30:17;;;;;;;1.00;0.70;;;28.50;99.90;;;;;;5137805;27;20497;-74
2021/06/04 10:32:54;;;;;;;0.90;0.70;;;28.50;99.90;;;;;;5136992;27;20446;-75
2021/06/04 10:35:24;;;;;;;6.90;4.88;;;28.50;99.90;;;;;;5138323;27;20419;-75
2021/06/04 10:38:00;;;;;;;0.90;0.73;;;28.10;99.90;;;;;;5138742;27;20841;-73
2021/06/04 10:40:35;;;;;;;1.80;0.90;;;27.70;99.90;;;;;;5153201;27;20492;-77
2021/06/04 10:43:34;;;;;;;1.60;0.70;;;27.60;99.90;;;;;;5157403;27;20440;-77
2021/06/04 10:46:09;;;;;;;1.00;0.80;;;27.50;99.90;;;;;;5142856;27;20433;-76
2021/06/04 10:48:52;;;;;;;1.75;0.70;;;27.40;99.90;;;;;;5136711;27;20425;-76
2021/06/04 10:51:30;;;;;;;1.90;0.70;;;27.40;99.90;;;;;;5156535;27;20416;-74
2021/06/04 10:54:09;;;;;;;1.02;0.80;;;27.20;99.90;;;;;;5156861;27;20417;-77
2021/06/04 10:56:41;;;;;;;1.10;0.70;;;27.20;99.90;;;;;;5159338;27;20839;-77
2021/06/04 10:59:16;;;;;;;1.30;0.80;;;27.00;99.90;;;;;;5138927;27;20439;-75
2021/06/04 11:01:50;;;;;;;1.35;0.80;;;26.90;99.90;;;;;;5138937;27;20458;-77
2021/06/04 11:04:22;;;;;;;1.13;0.70;;;26.90;99.90;;;;;;5153897;27;20429;-74
2021/06/04 11:07:05;;;;;;;1.20;0.80;;;26.70;99.90;;;;;;5163859;27;20866;-77
2021/06/04 11:09:40;;;;;;;1.50;0.80;;;26.70;99.90;;;;;;5142872;27;20454;-76
2021/06/04 11:12:22;;;;;;;1.77;0.80;;;26.60;99.90;;;;;;5152096;27;20433;-77
2021/06/04 11:15:10;;;;;;;1.33;0.80;;;26.50;99.90;;;;;;5161026;27;20417;-77
2021/06/04 11:17:45;;;;;;;2.00;0.73;;;26.50;99.90;;;;;;5157667;27;20424;-76
2021/06/04 11:20:17;;;;;;;0.90;0.70;;;25.70;99.90;;;;;;5156069;27;20536;-76
2021/06/04 11:22:50;;;;;;;1.30;0.70;;;25.30;99.90;;;;;;5127224;27;20517;-79
2021/06/04 11:25:32;;;;;;;1.05;0.70;;;25.20;99.90;;;;;;5135282;28;20940;-76
2021/06/04 11:28:07;;;;;;;0.98;0.70;;;25.20;99.90;;;;;;5135663;27;20452;-76
2021/06/04 11:30:34;;;;;;;1.00;0.70;;;25.30;99.90;;;;;;5145601;27;20473;-77
2021/06/04 11:33:04;;;;;;;1.77;0.70;;;25.50;99.90;;;;;;5154964;27;20428;-76
2021/06/04 11:35:35;;;;;;;1.02;0.70;;;25.70;99.90;;;;;;5144398;27;20445;-76
2021/06/04 11:38:05;;;;;;;1.10;0.80;;;25.80;99.90;;;;;;5140522;27;20441;-77
2021/06/04 11:40:37;;;;;;;1.50;0.80;;;25.80;99.90;;;;;;5142165;27;20852;-76
2021/06/04 11:43:14;;;;;;;2.30;0.70;;;25.70;99.90;;;;;;5136475;28;20406;-77
2021/06/04 11:48:40;;;;;;;1.40;0.80;;;25.60;99.90;;;;;;5111322;28;20418;-79
2021/06/04 11:51:33;;;;;;;1.42;1.00;;;25.50;99.90;;;;;;5133090;27;20914;-80
2021/06/04 11:54:19;;;;;;;1.85;1.00;;;25.30;99.90;;;;;;5134449;28;20422;-77
2021/06/04 11:56:53;;;;;;;1.60;1.00;;;25.30;99.90;;;;;;5137440;27;20468;-76
2021/06/04 11:59:57;;;;;;;1.50;1.00;;;25.30;99.90;;;;;;5148152;27;20430;-76
2021/06/04 12:02:41;;;;;;;1.60;1.00;;;25.20;99.90;;;;;;5151980;27;20762;-76
2021/06/04 12:05:35;;;;;;;2.70;0.90;;;25.30;99.90;;;;;;5146625;27;20425;-75
2021/06/04 12:08:43;;;;;;;1.67;0.80;;;25.40;99.90;;;;;;5151623;27;20870;-76
2021/06/04 12:11:35;;;;;;;1.15;0.80;;;25.30;99.90;;;;;;5134975;27;20457;-74
2021/06/04 12:14:20;;;;;;;1.97;0.70;;;25.10;99.90;;;;;;5135901;27;20430;-74
2021/06/04 12:17:25;;;;;;;1.80;0.80;;;25.00;99.90;;;;;;5139942;27;20414;-75
2021/06/04 12:20:31;;;;;;;2.78;0.80;;;24.90;99.90;;;;;;5160348;27;20462;-79
2021/06/04 12:23:01;;;;;;;1.55;0.70;;;24.60;99.90;;;;;;5160289;27;20538;-79
2021/06/04 12:25:44;;;;;;;0.90;0.70;;;24.40;99.90;;;;;;5162570;27;20521;-80
2021/06/04 12:28:30;;;;;;;4.20;0.90;;;24.20;99.90;;;;;;5141021;27;20422;-74
2021/06/04 12:31:31;;;;;;;5.10;1.30;;;23.80;99.90;;;;;;5138847;27;20450;-73
2021/06/04 12:34:01;;;;;;;7.67;3.23;;;22.80;99.90;;;;;;5145994;27;20925;-72
2021/06/04 12:37:03;;;;;;;7.10;6.45;;;21.00;99.90;;;;;;5133574;27;20430;-72
2021/06/04 12:40:01;;;;;;;1.50;0.60;;;19.30;99.90;;;;;;5155342;27;20445;-71
2021/06/04 12:42:48;;;;;;;1.00;0.80;;;18.70;99.90;;;;;;5138542;27;20430;-72
2021/06/04 12:45:25;;;;;;;1.50;0.70;;;18.50;99.90;;;;;;5156079;27;20433;-71
2021/06/04 12:47:54;;;;;;;1.33;0.70;;;18.60;99.90;;;;;;5158924;27;20838;-72
2021/06/04 12:50:27;;;;;;;2.22;0.70;;;18.70;99.90;;;;;;5138946;27;20967;-73
2021/06/04 12:53:11;;;;;;;2.00;1.10;;;18.80;99.90;;;;;;5138529;27;20879;-74
2021/06/04 12:55:39;;;;;;;1.90;0.80;;;18.90;99.90;;;;;;5138874;27;20449;-73
2021/06/04 12:58:12;;;;;;;1.10;0.80;;;19.10;99.90;;;;;;5139192;27;20419;-73
2021/06/04 13:00:39;;;;;;;1.20;0.90;;;19.30;99.90;;;;;;5151278;27;20823;-74
2021/06/04 13:03:14;;;;;;;2.10;0.90;;;19.60;99.90;;;;;;5159843;27;20409;-74
2021/06/04 13:05:47;;;;;;;1.10;0.80;;;20.00;99.90;;;;;;5144324;27;20433;-73
2021/06/04 13:08:16;;;;;;;1.80;0.60;;;20.20;99.90;;;;;;5149059;27;20526;-74
2021/06/04 13:10:52;;;;;;;1.10;0.80;;;20.30;99.90;;;;;;5137682;27;20518;-73
2021/06/04 13:13:26;;;;;;;1.17;0.80;;;20.40;99.90;;;;;;5138113;27;20403;-74
2021/06/04 13:15:53;;;;;;;1.90;0.80;;;20.60;99.90;;;;;;5137713;27;20422;-74